sensor_id;sensor_type;location;lat;lon;timestamp;temperature;humidity
18189;DHT22;9219;50.396;8.546;2023-12-07T00:05:55;3.50;99.90
18189;DHT22;9219;50.396;8.546;2023-12-07T00:08:22;2.90;99.90
18189;DHT22;9219;50.396;8.546;2023-12-07T00:10:50;2.70;99.90
18189;DHT22;9219;50.396;8.546;2023-12-07T00:13:17;2.90;99.90
18189;DHT22;9219;50.396;8.546;2023-12-07T00:15:44;3.30;99.90
18189;DHT22;9219;50.396;8.546;2023-12-07T00:18:11;3.40;99.90
18189;DHT22;9219;50.396;8.546;2023-12-07T00:20:38;3.60;99.90
18189;DHT22;9219;50.396;8.546;2023-12-07T00:25:45;3.80;99.90
18189;DHT22;9219;50.396;8.546;2023-12-07T00:28:13;3.70;99.90
18189;DHT22;9219;50.396;8.546;2023-12-07T00:30:40;3.70;99.90
18189;DHT22;9219;50.396;8.546;2023-12-07T00:33:08;3.80;99.90
18189;DHT22;9219;50.396;8.546;2023-12-07T00:35:35;3.70;99.90
18189;DHT22;9219;50.396;8.546;2023-12-07T00:38:03;3.70;99.90
18189;DHT22;9219;50.396;8.546;2023-12-07T00:40:30;3.40;99.90
18189;DHT22;9219;50.396;8.546;2023-12-07T00:50:34;3.00;99.90
18189;DHT22;9219;50.396;8.546;2023-12-07T00:53:01;2.90;99.90
18189;DHT22;9219;50.396;8.546;2023-12-07T00:55:28;2.60;99.90
18189;DHT22;9219;50.396;8.546;2023-12-07T00:57:55;2.80;99.90
18189;DHT22;9219;50.396;8.546;2023-12-07T01:00:22;3.10;99.90
18189;DHT22;9219;50.396;8.546;2023-12-07T01:02:50;3.20;99.90
18189;DHT22;9219;50.396;8.546;2023-12-07T01:05:17;3.20;99.90
18189;DHT22;9219;50.396;8.546;2023-12-07T01:07:46;3.20;99.90
18189;DHT22;9219;50.396;8.546;2023-12-07T01:15:17;2.50;99.90
18189;DHT22;9219;50.396;8.546;2023-12-07T01:17:45;2.50;99.90
18189;DHT22;9219;50.396;8.546;2023-12-07T01:20:12;2.40;99.90
18189;DHT22;9219;50.396;8.546;2023-12-07T01:22:40;2.60;99.90
18189;DHT22;9219;50.396;8.546;2023-12-07T01:25:07;2.60;99.90
18189;DHT22;9219;50.396;8.546;2023-12-07T01:27:35;2.80;99.90
18189;DHT22;9219;50.396;8.546;2023-12-07T01:30:04;2.50;99.90
18189;DHT22;9219;50.396;8.546;2023-12-07T01:36:14;2.40;99.90
18189;DHT22;9219;50.396;8.546;2023-12-07T01:38:41;2.90;99.90
18189;DHT22;9219;50.396;8.546;2023-12-07T01:41:09;2.60;99.90
18189;DHT22;9219;50.396;8.546;2023-12-07T01:43:36;2.60;99.90
18189;DHT22;9219;50.396;8.546;2023-12-07T01:46:04;2.70;99.90
18189;DHT22;9219;50.396;8.546;2023-12-07T01:48:31;2.80;99.90
18189;DHT22;9219;50.396;8.546;2023-12-07T01:50:59;2.80;99.90
18189;DHT22;9219;50.396;8.546;2023-12-07T01:53:28;3.00;99.90
18189;DHT22;9219;50.396;8.546;2023-12-07T02:01:00;3.30;99.90
18189;DHT22;9219;50.396;8.546;2023-12-07T02:03:28;3.60;99.90
18189;DHT22;9219;50.396;8.546;2023-12-07T02:05:58;3.70;99.90
18189;DHT22;9219;50.396;8.546;2023-12-07T02:08:49;3.70;99.90
18189;DHT22;9219;50.396;8.546;2023-12-07T02:11:20;3.70;99.90
18189;DHT22;9219;50.396;8.546;2023-12-07T02:13:47;3.60;99.90
18189;DHT22;9219;50.396;8.546;2023-12-07T02:16:21;3.40;99.90
18189;DHT22;9219;50.396;8.546;2023-12-07T02:26:01;3.60;99.90
18189;DHT22;9219;50.396;8.546;2023-12-07T02:28:30;3.80;99.90
18189;DHT22;9219;50.396;8.546;2023-12-07T02:30:58;3.70;99.90
18189;DHT22;9219;50.396;8.546;2023-12-07T02:33:25;3.70;99.90
18189;DHT22;9219;50.396;8.546;2023-12-07T02:35:52;4.20;99.90
18189;DHT22;9219;50.396;8.546;2023-12-07T02:38:23;4.10;99.90
18189;DHT22;9219;50.396;8.546;2023-12-07T02:40:53;3.80;99.90
18189;DHT22;9219;50.396;8.546;2023-12-07T02:43:21;3.80;99.90
18189;DHT22;9219;50.396;8.546;2023-12-07T02:51:23;3.60;99.90
18189;DHT22;9219;50.396;8.546;2023-12-07T02:53:51;3.60;99.90
18189;DHT22;9219;50.396;8.546;2023-12-07T02:56:18;3.50;99.90
18189;DHT22;9219;50.396;8.546;2023-12-07T02:58:45;3.60;99.90
18189;DHT22;9219;50.396;8.546;2023-12-07T03:01:12;3.70;99.90
18189;DHT22;9219;50.396;8.546;2023-12-07T03:03:40;3.60;99.90
18189;DHT22;9219;50.396;8.546;2023-12-07T03:06:08;3.50;99.90
18189;DHT22;9219;50.396;8.546;2023-12-07T03:11:16;3.50;99.90
18189;DHT22;9219;50.396;8.546;2023-12-07T03:13:43;3.60;99.90
18189;DHT22;9219;50.396;8.546;2023-12-07T03:16:10;3.50;99.90
18189;DHT22;9219;50.396;8.546;2023-12-07T03:18:37;3.40;99.90
18189;DHT22;9219;50.396;8.546;2023-12-07T03:21:04;3.40;99.90
18189;DHT22;9219;50.396;8.546;2023-12-07T03:23:31;3.20;99.90
18189;DHT22;9219;50.396;8.546;2023-12-07T03:26:00;3.30;99.90
18189;DHT22;9219;50.396;8.546;2023-12-07T03:28:28;3.10;99.90
18189;DHT22;9219;50.396;8.546;2023-12-07T03:31:10;2.80;99.90
18189;DHT22;9219;50.396;8.546;2023-12-07T03:33:37;2.40;99.90
18189;DHT22;9219;50.396;8.546;2023-12-07T03:36:05;2.20;99.90
18189;DHT22;9219;50.396;8.546;2023-12-07T03:38:32;2.50;99.90
18189;DHT22;9219;50.396;8.546;2023-12-07T03:40:59;2.60;99.90
18189;DHT22;9219;50.396;8.546;2023-12-07T03:43:26;2.80;99.90
18189;DHT22;9219;50.396;8.546;2023-12-07T03:45:53;3.10;99.90
18189;DHT22;9219;50.396;8.546;2023-12-07T03:48:21;3.20;99.90
18189;DHT22;9219;50.396;8.546;2023-12-07T03:55:55;3.50;99.90
18189;DHT22;9219;50.396;8.546;2023-12-07T03:58:22;3.70;99.90
18189;DHT22;9219;50.396;8.546;2023-12-07T04:00:50;3.70;99.90
18189;DHT22;9219;50.396;8.546;2023-12-07T04:03:17;4.00;99.90
18189;DHT22;9219;50.396;8.546;2023-12-07T04:05:44;4.00;99.90
18189;DHT22;9219;50.396;8.546;2023-12-07T04:08:11;4.10;99.90
18189;DHT22;9219;50.396;8.546;2023-12-07T04:10:39;4.00;99.90
18189;DHT22;9219;50.396;8.546;2023-12-07T04:16:50;3.50;99.90
18189;DHT22;9219;50.396;8.546;2023-12-07T04:19:17;3.30;99.90
18189;DHT22;9219;50.396;8.546;2023-12-07T04:21:44;3.70;99.90
18189;DHT22;9219;50.396;8.546;2023-12-07T04:24:11;3.90;99.90
18189;DHT22;9219;50.396;8.546;2023-12-07T04:26:39;4.00;99.90
18189;DHT22;9219;50.396;8.546;2023-12-07T04:29:06;3.90;99.90
18189;DHT22;9219;50.396;8.546;2023-12-07T04:31:33;3.70;99.90
18189;DHT22;9219;50.396;8.546;2023-12-07T04:36:41;4.00;99.90
18189;DHT22;9219;50.396;8.546;2023-12-07T04:39:08;4.20;99.90
18189;DHT22;9219;50.396;8.546;2023-12-07T04:41:36;4.30;99.90
18189;DHT22;9219;50.396;8.546;2023-12-07T04:44:03;4.10;99.90
18189;DHT22;9219;50.396;8.546;2023-12-07T04:46:30;3.90;99.90
18189;DHT22;9219;50.396;8.546;2023-12-07T04:48:57;4.10;99.90
18189;DHT22;9219;50.396;8.546;2023-12-07T04:51:24;4.10;99.90
18189;DHT22;9219;50.396;8.546;2023-12-07T04:53:53;4.10;99.90
18189;DHT22;9219;50.396;8.546;2023-12-07T05:01:36;3.80;99.90
18189;DHT22;9219;50.396;8.546;2023-12-07T05:04:03;3.60;99.90
18189;DHT22;9219;50.396;8.546;2023-12-07T05:06:31;3.70;99.90
18189;DHT22;9219;50.396;8.546;2023-12-07T05:09:00;3.70;99.90
18189;DHT22;9219;50.396;8.546;2023-12-07T05:11:27;3.80;99.90
18189;DHT22;9219;50.396;8.546;2023-12-07T05:13:55;4.00;99.90
18189;DHT22;9219;50.396;8.546;2023-12-07T05:16:22;3.90;99.90
18189;DHT22;9219;50.396;8.546;2023-12-07T05:18:50;3.90;99.90
18189;DHT22;9219;50.396;8.546;2023-12-07T05:26:18;3.70;99.90
18189;DHT22;9219;50.396;8.546;2023-12-07T05:28:45;3.60;99.90
18189;DHT22;9219;50.396;8.546;2023-12-07T05:31:16;3.50;99.90
18189;DHT22;9219;50.396;8.546;2023-12-07T05:33:44;3.50;99.90
18189;DHT22;9219;50.396;8.546;2023-12-07T05:36:11;3.50;99.90
18189;DHT22;9219;50.396;8.546;2023-12-07T05:38:38;3.60;99.90
18189;DHT22;9219;50.396;8.546;2023-12-07T05:41:06;3.60;99.90
18189;DHT22;9219;50.396;8.546;2023-12-07T05:43:34;3.60;99.90
18189;DHT22;9219;50.396;8.546;2023-12-07T05:51:30;3.60;99.90
18189;DHT22;9219;50.396;8.546;2023-12-07T05:53:57;3.70;99.90
18189;DHT22;9219;50.396;8.546;2023-12-07T05:56:24;3.70;99.90
18189;DHT22;9219;50.396;8.546;2023-12-07T05:58:51;3.70;99.90
18189;DHT22;9219;50.396;8.546;2023-12-07T06:01:18;3.70;99.90
18189;DHT22;9219;50.396;8.546;2023-12-07T06:03:46;3.70;99.90
18189;DHT22;9219;50.396;8.546;2023-12-07T06:06:15;3.80;99.90
18189;DHT22;9219;50.396;8.546;2023-12-07T06:12:28;3.70;99.90
18189;DHT22;9219;50.396;8.546;2023-12-07T06:14:57;3.70;99.90
18189;DHT22;9219;50.396;8.546;2023-12-07T06:17:24;3.70;99.90
18189;DHT22;9219;50.396;8.546;2023-12-07T06:19:51;3.80;99.90
18189;DHT22;9219;50.396;8.546;2023-12-07T06:22:18;4.00;99.90
18189;DHT22;9219;50.396;8.546;2023-12-07T06:24:46;3.90;99.90
18189;DHT22;9219;50.396;8.546;2023-12-07T06:27:16;3.90;99.90
18189;DHT22;9219;50.396;8.546;2023-12-07T06:29:45;3.80;99.90
18189;DHT22;9219;50.396;8.546;2023-12-07T06:38:27;3.50;99.90
18189;DHT22;9219;50.396;8.546;2023-12-07T06:40:54;3.60;99.90
18189;DHT22;9219;50.396;8.546;2023-12-07T06:43:22;3.60;99.90
18189;DHT22;9219;50.396;8.546;2023-12-07T06:45:49;3.70;99.90
18189;DHT22;9219;50.396;8.546;2023-12-07T06:48:16;3.80;99.90
18189;DHT22;9219;50.396;8.546;2023-12-07T06:50:43;3.80;99.90
18189;DHT22;9219;50.396;8.546;2023-12-07T06:53:11;3.80;99.90
18189;DHT22;9219;50.396;8.546;2023-12-07T06:58:19;3.80;99.90
18189;DHT22;9219;50.396;8.546;2023-12-07T07:00:47;3.80;99.90
18189;DHT22;9219;50.396;8.546;2023-12-07T07:03:16;3.90;99.90
18189;DHT22;9219;50.396;8.546;2023-12-07T07:05:43;4.20;99.90
18189;DHT22;9219;50.396;8.546;2023-12-07T07:08:11;4.70;99.90
18189;DHT22;9219;50.396;8.546;2023-12-07T07:10:38;4.70;99.90
18189;DHT22;9219;50.396;8.546;2023-12-07T07:13:05;4.30;99.90
18189;DHT22;9219;50.396;8.546;2023-12-07T07:21:53;4.10;99.90
18189;DHT22;9219;50.396;8.546;2023-12-07T07:24:21;3.70;99.90
18189;DHT22;9219;50.396;8.546;2023-12-07T07:26:48;3.80;99.90
18189;DHT22;9219;50.396;8.546;2023-12-07T07:29:15;3.90;99.90
18189;DHT22;9219;50.396;8.546;2023-12-07T07:31:42;4.10;99.90
18189;DHT22;9219;50.396;8.546;2023-12-07T07:34:09;4.00;99.90
18189;DHT22;9219;50.396;8.546;2023-12-07T07:36:37;3.90;99.90
18189;DHT22;9219;50.396;8.546;2023-12-07T07:39:05;3.90;99.90
18189;DHT22;9219;50.396;8.546;2023-12-07T07:46:40;3.60;99.90
18189;DHT22;9219;50.396;8.546;2023-12-07T07:49:07;3.80;99.90
18189;DHT22;9219;50.396;8.546;2023-12-07T07:51:35;3.80;99.90
18189;DHT22;9219;50.396;8.546;2023-12-07T07:54:02;3.80;99.90
18189;DHT22;9219;50.396;8.546;2023-12-07T07:56:29;4.00;99.90
18189;DHT22;9219;50.396;8.546;2023-12-07T07:58:56;4.00;99.90
18189;DHT22;9219;50.396;8.546;2023-12-07T08:01:26;3.90;99.90
18189;DHT22;9219;50.396;8.546;2023-12-07T08:03:54;4.10;99.90
18189;DHT22;9219;50.396;8.546;2023-12-07T08:11:26;3.90;99.90
18189;DHT22;9219;50.396;8.546;2023-12-07T08:13:54;4.00;99.90
18189;DHT22;9219;50.396;8.546;2023-12-07T08:16:21;3.80;99.90
18189;DHT22;9219;50.396;8.546;2023-12-07T08:18:48;3.80;99.90
18189;DHT22;9219;50.396;8.546;2023-12-07T08:21:19;4.00;99.90
18189;DHT22;9219;50.396;8.546;2023-12-07T08:23:52;4.00;99.90
18189;DHT22;9219;50.396;8.546;2023-12-07T08:26:21;4.00;99.90
18189;DHT22;9219;50.396;8.546;2023-12-07T08:31:37;3.90;99.90
18189;DHT22;9219;50.396;8.546;2023-12-07T08:34:05;4.00;99.90
18189;DHT22;9219;50.396;8.546;2023-12-07T08:36:33;3.90;99.90
18189;DHT22;9219;50.396;8.546;2023-12-07T08:39:00;3.90;99.90
18189;DHT22;9219;50.396;8.546;2023-12-07T08:41:27;3.80;99.90
18189;DHT22;9219;50.396;8.546;2023-12-07T08:43:54;3.90;99.90
18189;DHT22;9219;50.396;8.546;2023-12-07T08:46:22;3.90;99.90
18189;DHT22;9219;50.396;8.546;2023-12-07T08:48:51;3.80;99.90
18189;DHT22;9219;50.396;8.546;2023-12-07T08:56:23;3.80;99.90
18189;DHT22;9219;50.396;8.546;2023-12-07T08:58:52;3.70;99.90
18189;DHT22;9219;50.396;8.546;2023-12-07T09:01:19;3.70;99.90
18189;DHT22;9219;50.396;8.546;2023-12-07T09:03:58;3.80;99.90
18189;DHT22;9219;50.396;8.546;2023-12-07T09:06:25;3.80;99.90
18189;DHT22;9219;50.396;8.546;2023-12-07T09:08:53;4.00;99.90
18189;DHT22;9219;50.396;8.546;2023-12-07T09:11:21;4.00;99.90
18189;DHT22;9219;50.396;8.546;2023-12-07T09:13:49;3.90;99.90
18189;DHT22;9219;50.396;8.546;2023-12-07T09:21:21;4.00;99.90
18189;DHT22;9219;50.396;8.546;2023-12-07T09:23:49;4.30;99.90
18189;DHT22;9219;50.396;8.546;2023-12-07T09:26:16;4.40;99.90
18189;DHT22;9219;50.396;8.546;2023-12-07T09:28:43;4.50;99.90
18189;DHT22;9219;50.396;8.546;2023-12-07T09:31:10;4.60;99.90
18189;DHT22;9219;50.396;8.546;2023-12-07T09:33:38;4.70;99.90
18189;DHT22;9219;50.396;8.546;2023-12-07T09:36:05;4.90;99.90
18189;DHT22;9219;50.396;8.546;2023-12-07T09:38:36;4.90;99.90
18189;DHT22;9219;50.396;8.546;2023-12-07T09:46:09;4.80;99.90
18189;DHT22;9219;50.396;8.546;2023-12-07T09:48:37;5.20;99.90
18189;DHT22;9219;50.396;8.546;2023-12-07T09:51:07;5.20;99.90
18189;DHT22;9219;50.396;8.546;2023-12-07T09:53:35;5.20;99.90
18189;DHT22;9219;50.396;8.546;2023-12-07T09:56:05;5.30;99.90
18189;DHT22;9219;50.396;8.546;2023-12-07T09:58:33;5.30;99.90
18189;DHT22;9219;50.396;8.546;2023-12-07T10:01:08;5.40;99.90
18189;DHT22;9219;50.396;8.546;2023-12-07T10:07:32;5.30;99.90
18189;DHT22;9219;50.396;8.546;2023-12-07T10:09:59;5.20;99.90
18189;DHT22;9219;50.396;8.546;2023-12-07T10:12:27;5.10;99.90
18189;DHT22;9219;50.396;8.546;2023-12-07T10:14:54;4.90;99.90
18189;DHT22;9219;50.396;8.546;2023-12-07T10:17:21;5.00;99.90
18189;DHT22;9219;50.396;8.546;2023-12-07T10:20:07;4.80;99.90
18189;DHT22;9219;50.396;8.546;2023-12-07T10:22:38;4.60;99.90
18189;DHT22;9219;50.396;8.546;2023-12-07T10:28:39;4.50;99.90
18189;DHT22;9219;50.396;8.546;2023-12-07T10:31:08;4.10;99.90
18189;DHT22;9219;50.396;8.546;2023-12-07T10:33:35;4.10;99.90
18189;DHT22;9219;50.396;8.546;2023-12-07T10:36:03;3.90;99.90
18189;DHT22;9219;50.396;8.546;2023-12-07T10:38:31;4.00;99.90
18189;DHT22;9219;50.396;8.546;2023-12-07T10:41:04;3.80;99.90
18189;DHT22;9219;50.396;8.546;2023-12-07T10:43:37;3.70;99.90
18189;DHT22;9219;50.396;8.546;2023-12-07T10:46:07;3.60;99.90
18189;DHT22;9219;50.396;8.546;2023-12-07T10:49:08;3.60;99.90
18189;DHT22;9219;50.396;8.546;2023-12-07T10:51:56;3.70;99.90
18189;DHT22;9219;50.396;8.546;2023-12-07T10:54:33;3.60;99.90
18189;DHT22;9219;50.396;8.546;2023-12-07T10:57:04;3.50;99.90
18189;DHT22;9219;50.396;8.546;2023-12-07T10:59:35;3.50;99.90
18189;DHT22;9219;50.396;8.546;2023-12-07T11:02:04;3.50;99.90
18189;DHT22;9219;50.396;8.546;2023-12-07T11:04:35;3.40;99.90
18189;DHT22;9219;50.396;8.546;2023-12-07T11:10:58;3.50;99.90
18189;DHT22;9219;50.396;8.546;2023-12-07T11:13:29;3.50;99.90
18189;DHT22;9219;50.396;8.546;2023-12-07T11:15:58;3.60;99.90
18189;DHT22;9219;50.396;8.546;2023-12-07T11:18:25;3.70;99.90
18189;DHT22;9219;50.396;8.546;2023-12-07T11:20:53;3.80;99.90
18189;DHT22;9219;50.396;8.546;2023-12-07T11:23:21;4.00;99.90
18189;DHT22;9219;50.396;8.546;2023-12-07T11:25:51;4.10;99.90
18189;DHT22;9219;50.396;8.546;2023-12-07T11:34:41;4.30;99.90
18189;DHT22;9219;50.396;8.546;2023-12-07T11:37:10;4.60;99.90
18189;DHT22;9219;50.396;8.546;2023-12-07T11:39:40;4.60;99.90
18189;DHT22;9219;50.396;8.546;2023-12-07T11:42:11;4.70;99.90
18189;DHT22;9219;50.396;8.546;2023-12-07T11:44:40;4.70;99.90
18189;DHT22;9219;50.396;8.546;2023-12-07T11:47:09;4.80;99.90
18189;DHT22;9219;50.396;8.546;2023-12-07T11:49:36;4.80;99.90
18189;DHT22;9219;50.396;8.546;2023-12-07T11:57:18;4.90;99.90
18189;DHT22;9219;50.396;8.546;2023-12-07T11:59:46;4.90;99.90
18189;DHT22;9219;50.396;8.546;2023-12-07T12:02:14;4.90;99.90
18189;DHT22;9219;50.396;8.546;2023-12-07T12:04:41;5.00;99.90
18189;DHT22;9219;50.396;8.546;2023-12-07T12:07:09;5.00;99.90
18189;DHT22;9219;50.396;8.546;2023-12-07T12:09:36;5.00;99.90
18189;DHT22;9219;50.396;8.546;2023-12-07T12:12:04;5.00;99.90
18189;DHT22;9219;50.396;8.546;2023-12-07T12:14:33;4.80;99.90
18189;DHT22;9219;50.396;8.546;2023-12-07T12:17:29;4.80;99.90
18189;DHT22;9219;50.396;8.546;2023-12-07T12:19:57;4.90;99.90
18189;DHT22;9219;50.396;8.546;2023-12-07T12:22:25;4.80;99.90
18189;DHT22;9219;50.396;8.546;2023-12-07T12:24:52;4.70;99.90
18189;DHT22;9219;50.396;8.546;2023-12-07T12:27:21;4.60;99.90
18189;DHT22;9219;50.396;8.546;2023-12-07T12:29:49;4.40;99.90
18189;DHT22;9219;50.396;8.546;2023-12-07T12:32:17;4.30;99.90
18189;DHT22;9219;50.396;8.546;2023-12-07T12:34:45;4.30;99.90
18189;DHT22;9219;50.396;8.546;2023-12-07T12:42:32;4.30;99.90
18189;DHT22;9219;50.396;8.546;2023-12-07T12:45:00;4.10;99.90
18189;DHT22;9219;50.396;8.546;2023-12-07T12:47:27;4.00;99.90
18189;DHT22;9219;50.396;8.546;2023-12-07T12:50:32;4.00;99.90
18189;DHT22;9219;50.396;8.546;2023-12-07T12:53:04;4.00;99.90
18189;DHT22;9219;50.396;8.546;2023-12-07T12:55:33;3.80;99.90
18189;DHT22;9219;50.396;8.546;2023-12-07T12:58:03;3.80;99.90
18189;DHT22;9219;50.396;8.546;2023-12-07T13:05:35;3.60;99.90
18189;DHT22;9219;50.396;8.546;2023-12-07T13:08:03;3.40;99.90
18189;DHT22;9219;50.396;8.546;2023-12-07T13:10:40;3.30;99.90
18189;DHT22;9219;50.396;8.546;2023-12-07T13:13:08;3.10;99.90
18189;DHT22;9219;50.396;8.546;2023-12-07T13:15:35;3.20;99.90
18189;DHT22;9219;50.396;8.546;2023-12-07T13:18:03;3.10;99.90
18189;DHT22;9219;50.396;8.546;2023-12-07T13:20:35;3.30;99.90
18189;DHT22;9219;50.396;8.546;2023-12-07T13:28:24;3.40;99.90
18189;DHT22;9219;50.396;8.546;2023-12-07T13:30:52;3.30;99.90
18189;DHT22;9219;50.396;8.546;2023-12-07T13:33:20;3.30;99.90
18189;DHT22;9219;50.396;8.546;2023-12-07T13:35:56;3.30;99.90
18189;DHT22;9219;50.396;8.546;2023-12-07T13:38:24;3.00;99.90
18189;DHT22;9219;50.396;8.546;2023-12-07T13:40:51;2.90;99.90
18189;DHT22;9219;50.396;8.546;2023-12-07T13:43:18;2.80;99.90
18189;DHT22;9219;50.396;8.546;2023-12-07T13:52:07;2.80;99.90
18189;DHT22;9219;50.396;8.546;2023-12-07T13:54:35;2.50;99.90
18189;DHT22;9219;50.396;8.546;2023-12-07T13:57:19;2.60;99.90
18189;DHT22;9219;50.396;8.546;2023-12-07T13:59:46;2.70;99.90
18189;DHT22;9219;50.396;8.546;2023-12-07T14:02:14;2.80;99.90
18189;DHT22;9219;50.396;8.546;2023-12-07T14:04:41;2.70;99.90
18189;DHT22;9219;50.396;8.546;2023-12-07T14:07:11;2.90;99.90
18189;DHT22;9219;50.396;8.546;2023-12-07T14:09:41;2.90;99.90
18189;DHT22;9219;50.396;8.546;2023-12-07T14:12:36;2.90;99.90
18189;DHT22;9219;50.396;8.546;2023-12-07T14:15:08;3.00;99.90
18189;DHT22;9219;50.396;8.546;2023-12-07T14:17:36;3.00;99.90
18189;DHT22;9219;50.396;8.546;2023-12-07T14:20:16;3.10;99.90
18189;DHT22;9219;50.396;8.546;2023-12-07T14:23:04;2.90;99.90
18189;DHT22;9219;50.396;8.546;2023-12-07T14:25:32;2.90;99.90
18189;DHT22;9219;50.396;8.546;2023-12-07T14:28:00;2.90;99.90
18189;DHT22;9219;50.396;8.546;2023-12-07T14:35:33;3.10;99.90
18189;DHT22;9219;50.396;8.546;2023-12-07T14:38:00;3.00;99.90
18189;DHT22;9219;50.396;8.546;2023-12-07T14:40:28;3.10;99.90
18189;DHT22;9219;50.396;8.546;2023-12-07T14:42:56;3.20;99.90
18189;DHT22;9219;50.396;8.546;2023-12-07T14:45:24;3.10;99.90
18189;DHT22;9219;50.396;8.546;2023-12-07T14:47:52;3.10;99.90
18189;DHT22;9219;50.396;8.546;2023-12-07T14:50:20;3.20;99.90
18189;DHT22;9219;50.396;8.546;2023-12-07T14:55:30;3.20;99.90
18189;DHT22;9219;50.396;8.546;2023-12-07T14:57:58;3.00;99.90
18189;DHT22;9219;50.396;8.546;2023-12-07T15:00:25;3.10;99.90
18189;DHT22;9219;50.396;8.546;2023-12-07T15:02:53;3.10;99.90
18189;DHT22;9219;50.396;8.546;2023-12-07T15:05:21;2.90;99.90
18189;DHT22;9219;50.396;8.546;2023-12-07T15:07:49;3.00;99.90
18189;DHT22;9219;50.396;8.546;2023-12-07T15:10:17;3.10;99.90
18189;DHT22;9219;50.396;8.546;2023-12-07T15:16:27;3.10;99.90
18189;DHT22;9219;50.396;8.546;2023-12-07T15:18:54;3.10;99.90
18189;DHT22;9219;50.396;8.546;2023-12-07T15:21:21;3.00;99.90
18189;DHT22;9219;50.396;8.546;2023-12-07T15:23:49;3.10;99.90
18189;DHT22;9219;50.396;8.546;2023-12-07T15:26:17;3.00;99.90
18189;DHT22;9219;50.396;8.546;2023-12-07T15:28:44;3.00;99.90
18189;DHT22;9219;50.396;8.546;2023-12-07T15:31:12;2.90;99.90
18189;DHT22;9219;50.396;8.546;2023-12-07T15:33:41;3.10;99.90
18189;DHT22;9219;50.396;8.546;2023-12-07T15:37:40;3.00;99.90
18189;DHT22;9219;50.396;8.546;2023-12-07T15:40:08;3.00;99.90
18189;DHT22;9219;50.396;8.546;2023-12-07T15:42:36;3.00;99.90
18189;DHT22;9219;50.396;8.546;2023-12-07T15:45:05;3.10;99.90
18189;DHT22;9219;50.396;8.546;2023-12-07T15:47:33;3.20;99.90
18189;DHT22;9219;50.396;8.546;2023-12-07T15:50:01;3.20;99.90
18189;DHT22;9219;50.396;8.546;2023-12-07T15:52:28;3.10;99.90
18189;DHT22;9219;50.396;8.546;2023-12-07T15:59:59;3.00;99.90
18189;DHT22;9219;50.396;8.546;2023-12-07T16:02:27;2.90;99.90
18189;DHT22;9219;50.396;8.546;2023-12-07T16:04:54;2.90;99.90
18189;DHT22;9219;50.396;8.546;2023-12-07T16:07:22;2.90;99.90
18189;DHT22;9219;50.396;8.546;2023-12-07T16:09:50;2.90;99.90
18189;DHT22;9219;50.396;8.546;2023-12-07T16:12:17;3.00;99.90
18189;DHT22;9219;50.396;8.546;2023-12-07T16:14:44;2.90;99.90
18189;DHT22;9219;50.396;8.546;2023-12-07T16:17:13;3.00;99.90
18189;DHT22;9219;50.396;8.546;2023-12-07T16:23:49;3.00;99.90
18189;DHT22;9219;50.396;8.546;2023-12-07T16:26:16;2.80;99.90
18189;DHT22;9219;50.396;8.546;2023-12-07T16:28:43;2.80;99.90
18189;DHT22;9219;50.396;8.546;2023-12-07T16:31:10;2.80;99.90
18189;DHT22;9219;50.396;8.546;2023-12-07T16:33:38;2.70;99.90
18189;DHT22;9219;50.396;8.546;2023-12-07T16:36:06;2.70;99.90
18189;DHT22;9219;50.396;8.546;2023-12-07T16:38:45;2.60;99.90
18189;DHT22;9219;50.396;8.546;2023-12-07T16:43:52;2.60;99.90
18189;DHT22;9219;50.396;8.546;2023-12-07T16:46:20;2.60;99.90
18189;DHT22;9219;50.396;8.546;2023-12-07T16:48:48;2.50;99.90
18189;DHT22;9219;50.396;8.546;2023-12-07T16:51:15;2.50;99.90
18189;DHT22;9219;50.396;8.546;2023-12-07T16:53:44;2.50;99.90
18189;DHT22;9219;50.396;8.546;2023-12-07T16:56:11;2.60;99.90
18189;DHT22;9219;50.396;8.546;2023-12-07T16:58:39;2.60;99.90
18189;DHT22;9219;50.396;8.546;2023-12-07T17:01:10;2.60;99.90
18189;DHT22;9219;50.396;8.546;2023-12-07T17:09:08;2.30;99.90
18189;DHT22;9219;50.396;8.546;2023-12-07T17:11:42;2.40;99.90
18189;DHT22;9219;50.396;8.546;2023-12-07T17:14:09;2.40;99.90
18189;DHT22;9219;50.396;8.546;2023-12-07T17:16:37;2.30;99.90
18189;DHT22;9219;50.396;8.546;2023-12-07T17:19:04;2.30;99.90
18189;DHT22;9219;50.396;8.546;2023-12-07T17:21:31;2.20;99.90
18189;DHT22;9219;50.396;8.546;2023-12-07T17:23:59;2.40;99.90
18189;DHT22;9219;50.396;8.546;2023-12-07T17:26:27;2.30;99.90
18189;DHT22;9219;50.396;8.546;2023-12-07T17:30:35;2.20;99.90
18189;DHT22;9219;50.396;8.546;2023-12-07T17:33:02;2.00;99.90
18189;DHT22;9219;50.396;8.546;2023-12-07T17:35:30;2.10;99.90
18189;DHT22;9219;50.396;8.546;2023-12-07T17:37:57;1.90;99.90
18189;DHT22;9219;50.396;8.546;2023-12-07T17:40:25;2.10;99.90
18189;DHT22;9219;50.396;8.546;2023-12-07T17:42:53;2.10;99.90
18189;DHT22;9219;50.396;8.546;2023-12-07T17:45:20;2.30;99.90
18189;DHT22;9219;50.396;8.546;2023-12-07T17:51:19;2.20;99.90
18189;DHT22;9219;50.396;8.546;2023-12-07T17:53:46;2.10;99.90
18189;DHT22;9219;50.396;8.546;2023-12-07T17:56:15;2.00;99.90
18189;DHT22;9219;50.396;8.546;2023-12-07T17:58:43;2.10;99.90
18189;DHT22;9219;50.396;8.546;2023-12-07T18:01:18;2.10;99.90
18189;DHT22;9219;50.396;8.546;2023-12-07T18:03:46;2.10;99.90
18189;DHT22;9219;50.396;8.546;2023-12-07T18:06:14;2.00;99.90
18189;DHT22;9219;50.396;8.546;2023-12-07T18:12:01;2.00;99.90
18189;DHT22;9219;50.396;8.546;2023-12-07T18:14:29;1.80;99.90
18189;DHT22;9219;50.396;8.546;2023-12-07T18:16:56;1.90;99.90
18189;DHT22;9219;50.396;8.546;2023-12-07T18:19:23;1.80;99.90
18189;DHT22;9219;50.396;8.546;2023-12-07T18:21:51;1.70;99.90
18189;DHT22;9219;50.396;8.546;2023-12-07T18:24:19;1.80;99.90
18189;DHT22;9219;50.396;8.546;2023-12-07T18:26:47;1.60;99.90
18189;DHT22;9219;50.396;8.546;2023-12-07T18:29:15;1.70;99.90
18189;DHT22;9219;50.396;8.546;2023-12-07T18:36:48;1.60;99.90
18189;DHT22;9219;50.396;8.546;2023-12-07T18:39:15;1.40;99.90
18189;DHT22;9219;50.396;8.546;2023-12-07T18:41:43;1.40;99.90
18189;DHT22;9219;50.396;8.546;2023-12-07T18:44:10;1.40;99.90
18189;DHT22;9219;50.396;8.546;2023-12-07T18:46:38;1.40;99.90
18189;DHT22;9219;50.396;8.546;2023-12-07T18:49:05;1.60;99.90
18189;DHT22;9219;50.396;8.546;2023-12-07T18:51:33;1.60;99.90
18189;DHT22;9219;50.396;8.546;2023-12-07T18:54:02;1.50;99.90
18189;DHT22;9219;50.396;8.546;2023-12-07T18:56:45;1.40;99.90
18189;DHT22;9219;50.396;8.546;2023-12-07T18:59:13;1.20;99.90
18189;DHT22;9219;50.396;8.546;2023-12-07T19:01:41;1.10;99.90
18189;DHT22;9219;50.396;8.546;2023-12-07T19:04:08;1.20;99.90
18189;DHT22;9219;50.396;8.546;2023-12-07T19:06:36;1.10;99.90
18189;DHT22;9219;50.396;8.546;2023-12-07T19:09:04;1.10;99.90
18189;DHT22;9219;50.396;8.546;2023-12-07T19:11:34;1.10;99.90
18189;DHT22;9219;50.396;8.546;2023-12-07T19:17:58;1.10;99.90
18189;DHT22;9219;50.396;8.546;2023-12-07T19:20:25;1.10;99.90
18189;DHT22;9219;50.396;8.546;2023-12-07T19:22:52;1.10;99.90
18189;DHT22;9219;50.396;8.546;2023-12-07T19:25:20;1.00;99.90
18189;DHT22;9219;50.396;8.546;2023-12-07T19:27:47;1.00;99.90
18189;DHT22;9219;50.396;8.546;2023-12-07T19:30:18;1.10;99.90
18189;DHT22;9219;50.396;8.546;2023-12-07T19:32:46;1.20;99.90
18189;DHT22;9219;50.396;8.546;2023-12-07T19:35:16;1.30;99.90
18189;DHT22;9219;50.396;8.546;2023-12-07T19:42:51;1.20;99.90
18189;DHT22;9219;50.396;8.546;2023-12-07T19:45:19;1.30;99.90
18189;DHT22;9219;50.396;8.546;2023-12-07T19:47:46;1.30;99.90